sensor_id;sensor_type;location;lat;lon;timestamp;P1;durP1;ratioP1;P2;durP2;ratioP2
24631;SDS011;59977;48.782;9.190;2024-02-23T00:00:27;0.95;;;0.32;;
24631;SDS011;59977;48.782;9.190;2024-02-23T00:02:53;3.70;;;0.20;;
24631;SDS011;59977;48.782;9.190;2024-02-23T00:05:21;1.92;;;0.60;;
24631;SDS011;59977;48.782;9.190;2024-02-23T00:07:47;2.25;;;0.50;;
24631;SDS011;59977;48.782;9.190;2024-02-23T00:10:12;0.57;;;0.30;;
24631;SDS011;59977;48.782;9.190;2024-02-23T00:12:38;0.30;;;0.20;;
24631;SDS011;59977;48.782;9.190;2024-02-23T00:15:04;2.25;;;0.28;;
24631;SDS011;59977;48.782;9.190;2024-02-23T00:17:29;0.30;;;0.30;;
24631;SDS011;59977;48.782;9.190;2024-02-23T00:19:55;0.55;;;0.30;;
24631;SDS011;59977;48.782;9.190;2024-02-23T00:22:21;0.90;;;0.40;;
24631;SDS011;59977;48.782;9.190;2024-02-23T00:24:46;1.17;;;0.38;;
24631;SDS011;59977;48.782;9.190;2024-02-23T00:27:12;1.35;;;0.47;;
24631;SDS011;59977;48.782;9.190;2024-02-23T00:29:37;0.50;;;0.35;;
24631;SDS011;59977;48.782;9.190;2024-02-23T00:32:03;2.60;;;0.50;;
24631;SDS011;59977;48.782;9.190;2024-02-23T00:34:29;2.35;;;0.50;;
24631;SDS011;59977;48.782;9.190;2024-02-23T00:36:56;0.38;;;0.30;;
24631;SDS011;59977;48.782;9.190;2024-02-23T00:39:22;2.13;;;0.50;;
24631;SDS011;59977;48.782;9.190;2024-02-23T00:41:48;1.05;;;0.38;;
24631;SDS011;59977;48.782;9.190;2024-02-23T00:44:13;4.20;;;0.47;;
24631;SDS011;59977;48.782;9.190;2024-02-23T00:46:39;2.00;;;0.60;;
24631;SDS011;59977;48.782;9.190;2024-02-23T00:49:05;2.30;;;0.50;;
24631;SDS011;59977;48.782;9.190;2024-02-23T00:51:31;1.25;;;0.50;;
24631;SDS011;59977;48.782;9.190;2024-02-23T00:53:57;0.55;;;0.38;;
24631;SDS011;59977;48.782;9.190;2024-02-23T00:56:22;1.55;;;0.70;;
24631;SDS011;59977;48.782;9.190;2024-02-23T00:58:48;2.53;;;0.80;;
24631;SDS011;59977;48.782;9.190;2024-02-23T01:01:14;2.42;;;0.52;;
24631;SDS011;59977;48.782;9.190;2024-02-23T01:03:39;2.22;;;0.60;;
24631;SDS011;59977;48.782;9.190;2024-02-23T01:06:05;5.65;;;0.88;;
24631;SDS011;59977;48.782;9.190;2024-02-23T01:08:30;5.85;;;0.90;;
24631;SDS011;59977;48.782;9.190;2024-02-23T01:10:56;3.83;;;0.60;;
24631;SDS011;59977;48.782;9.190;2024-02-23T01:13:22;1.15;;;0.60;;
24631;SDS011;59977;48.782;9.190;2024-02-23T01:15:47;1.70;;;0.52;;
24631;SDS011;59977;48.782;9.190;2024-02-23T01:18:13;2.03;;;0.40;;
24631;SDS011;59977;48.782;9.190;2024-02-23T01:20:39;2.92;;;0.88;;
24631;SDS011;59977;48.782;9.190;2024-02-23T01:23:07;2.67;;;0.77;;
24631;SDS011;59977;48.782;9.190;2024-02-23T01:25:33;3.90;;;1.30;;
24631;SDS011;59977;48.782;9.190;2024-02-23T01:27:59;4.40;;;1.30;;
24631;SDS011;59977;48.782;9.190;2024-02-23T01:30:25;2.72;;;0.65;;
24631;SDS011;59977;48.782;9.190;2024-02-23T01:32:51;6.00;;;0.85;;
24631;SDS011;59977;48.782;9.190;2024-02-23T01:35:17;3.90;;;0.70;;
24631;SDS011;59977;48.782;9.190;2024-02-23T01:37:42;5.18;;;1.02;;
24631;SDS011;59977;48.782;9.190;2024-02-23T01:40:09;2.10;;;0.63;;
24631;SDS011;59977;48.782;9.190;2024-02-23T01:42:34;2.47;;;0.52;;
24631;SDS011;59977;48.782;9.190;2024-02-23T01:45:00;5.40;;;0.77;;
24631;SDS011;59977;48.782;9.190;2024-02-23T01:47:26;2.63;;;0.70;;
24631;SDS011;59977;48.782;9.190;2024-02-23T01:49:54;3.42;;;0.80;;
24631;SDS011;59977;48.782;9.190;2024-02-23T01:52:21;3.58;;;0.77;;
24631;SDS011;59977;48.782;9.190;2024-02-23T01:54:47;2.13;;;0.80;;
24631;SDS011;59977;48.782;9.190;2024-02-23T01:57:12;2.55;;;0.82;;
24631;SDS011;59977;48.782;9.190;2024-02-23T01:59:39;5.75;;;0.90;;
24631;SDS011;59977;48.782;9.190;2024-02-23T02:02:06;6.22;;;0.93;;
24631;SDS011;59977;48.782;9.190;2024-02-23T02:04:31;1.90;;;0.68;;
24631;SDS011;59977;48.782;9.190;2024-02-23T02:06:57;5.22;;;0.90;;
24631;SDS011;59977;48.782;9.190;2024-02-23T02:09:24;6.45;;;0.80;;
24631;SDS011;59977;48.782;9.190;2024-02-23T02:11:50;2.17;;;0.80;;
24631;SDS011;59977;48.782;9.190;2024-02-23T02:14:16;2.45;;;0.70;;
24631;SDS011;59977;48.782;9.190;2024-02-23T02:16:42;2.72;;;0.63;;
24631;SDS011;59977;48.782;9.190;2024-02-23T02:19:11;5.45;;;0.90;;
24631;SDS011;59977;48.782;9.190;2024-02-23T02:21:38;2.60;;;0.70;;
24631;SDS011;59977;48.782;9.190;2024-02-23T02:24:04;3.47;;;0.70;;
24631;SDS011;59977;48.782;9.190;2024-02-23T02:26:30;3.60;;;0.63;;
24631;SDS011;59977;48.782;9.190;2024-02-23T02:28:56;5.85;;;1.30;;
24631;SDS011;59977;48.782;9.190;2024-02-23T02:31:22;2.15;;;0.82;;
24631;SDS011;59977;48.782;9.190;2024-02-23T02:33:47;3.72;;;0.90;;
24631;SDS011;59977;48.782;9.190;2024-02-23T02:36:13;4.85;;;0.73;;
24631;SDS011;59977;48.782;9.190;2024-02-23T02:38:39;3.92;;;0.90;;
24631;SDS011;59977;48.782;9.190;2024-02-23T02:41:04;3.92;;;0.90;;
24631;SDS011;59977;48.782;9.190;2024-02-23T02:43:30;6.05;;;0.90;;
24631;SDS011;59977;48.782;9.190;2024-02-23T02:45:56;3.47;;;0.77;;
24631;SDS011;59977;48.782;9.190;2024-02-23T02:48:22;3.92;;;0.68;;
24631;SDS011;59977;48.782;9.190;2024-02-23T02:50:48;6.88;;;1.00;;
24631;SDS011;59977;48.782;9.190;2024-02-23T02:53:15;2.65;;;0.70;;
24631;SDS011;59977;48.782;9.190;2024-02-23T02:55:44;3.22;;;0.70;;
24631;SDS011;59977;48.782;9.190;2024-02-23T02:58:11;1.55;;;0.75;;
24631;SDS011;59977;48.782;9.190;2024-02-23T03:00:37;4.72;;;0.95;;
24631;SDS011;59977;48.782;9.190;2024-02-23T03:03:03;5.63;;;0.98;;
24631;SDS011;59977;48.782;9.190;2024-02-23T03:05:28;2.95;;;0.70;;
24631;SDS011;59977;48.782;9.190;2024-02-23T03:07:54;5.28;;;0.93;;
24631;SDS011;59977;48.782;9.190;2024-02-23T03:10:20;1.95;;;0.50;;
24631;SDS011;59977;48.782;9.190;2024-02-23T03:12:45;3.80;;;0.70;;
24631;SDS011;59977;48.782;9.190;2024-02-23T03:15:11;2.58;;;0.68;;
24631;SDS011;59977;48.782;9.190;2024-02-23T03:17:37;2.85;;;0.60;;
24631;SDS011;59977;48.782;9.190;2024-02-23T03:20:03;1.48;;;0.60;;
24631;SDS011;59977;48.782;9.190;2024-02-23T03:22:33;1.90;;;0.60;;
24631;SDS011;59977;48.782;9.190;2024-02-23T03:24:59;4.00;;;0.68;;
24631;SDS011;59977;48.782;9.190;2024-02-23T03:27:27;1.67;;;0.55;;
24631;SDS011;59977;48.782;9.190;2024-02-23T03:29:57;6.18;;;0.85;;
24631;SDS011;59977;48.782;9.190;2024-02-23T03:32:22;3.08;;;1.15;;
24631;SDS011;59977;48.782;9.190;2024-02-23T03:34:48;2.05;;;0.70;;
24631;SDS011;59977;48.782;9.190;2024-02-23T03:37:13;1.95;;;0.60;;
24631;SDS011;59977;48.782;9.190;2024-02-23T03:39:39;4.25;;;0.90;;
24631;SDS011;59977;48.782;9.190;2024-02-23T03:42:04;2.33;;;0.60;;
24631;SDS011;59977;48.782;9.190;2024-02-23T03:44:30;2.25;;;0.70;;
24631;SDS011;59977;48.782;9.190;2024-02-23T03:46:56;2.80;;;0.60;;
24631;SDS011;59977;48.782;9.190;2024-02-23T03:49:22;1.95;;;0.60;;
24631;SDS011;59977;48.782;9.190;2024-02-23T03:51:47;5.80;;;0.93;;
24631;SDS011;59977;48.782;9.190;2024-02-23T03:54:13;1.30;;;0.60;;
24631;SDS011;59977;48.782;9.190;2024-02-23T03:56:42;5.35;;;0.85;;
24631;SDS011;59977;48.782;9.190;2024-02-23T03:59:08;1.80;;;0.70;;
24631;SDS011;59977;48.782;9.190;2024-02-23T04:01:35;3.08;;;0.82;;
24631;SDS011;59977;48.782;9.190;2024-02-23T04:04:02;3.50;;;0.70;;
24631;SDS011;59977;48.782;9.190;2024-02-23T04:06:28;2.92;;;0.82;;
24631;SDS011;59977;48.782;9.190;2024-02-23T04:08:54;4.50;;;0.88;;
24631;SDS011;59977;48.782;9.190;2024-02-23T04:11:20;2.85;;;0.65;;
24631;SDS011;59977;48.782;9.190;2024-02-23T04:13:46;4.13;;;0.80;;
24631;SDS011;59977;48.782;9.190;2024-02-23T04:16:11;1.77;;;0.60;;
24631;SDS011;59977;48.782;9.190;2024-02-23T04:18:37;2.00;;;0.60;;
24631;SDS011;59977;48.782;9.190;2024-02-23T04:21:02;1.70;;;0.80;;
24631;SDS011;59977;48.782;9.190;2024-02-23T04:23:28;2.83;;;0.85;;
24631;SDS011;59977;48.782;9.190;2024-02-23T04:25:54;5.25;;;1.10;;
24631;SDS011;59977;48.782;9.190;2024-02-23T04:28:19;7.00;;;0.80;;
24631;SDS011;59977;48.782;9.190;2024-02-23T04:30:45;1.75;;;0.60;;
24631;SDS011;59977;48.782;9.190;2024-02-23T04:33:11;4.63;;;0.70;;
24631;SDS011;59977;48.782;9.190;2024-02-23T04:35:36;3.70;;;0.90;;
24631;SDS011;59977;48.782;9.190;2024-02-23T04:38:03;2.05;;;0.50;;
24631;SDS011;59977;48.782;9.190;2024-02-23T04:40:28;3.95;;;0.77;;
24631;SDS011;59977;48.782;9.190;2024-02-23T04:42:54;3.17;;;0.90;;
24631;SDS011;59977;48.782;9.190;2024-02-23T04:45:19;3.33;;;0.75;;
24631;SDS011;59977;48.782;9.190;2024-02-23T04:47:45;8.68;;;1.00;;
24631;SDS011;59977;48.782;9.190;2024-02-23T04:50:13;4.45;;;0.85;;
24631;SDS011;59977;48.782;9.190;2024-02-23T04:52:39;3.50;;;0.80;;
24631;SDS011;59977;48.782;9.190;2024-02-23T04:55:04;3.70;;;0.70;;
24631;SDS011;59977;48.782;9.190;2024-02-23T04:57:31;3.28;;;1.00;;
24631;SDS011;59977;48.782;9.190;2024-02-23T04:59:57;5.32;;;0.60;;
24631;SDS011;59977;48.782;9.190;2024-02-23T05:02:22;4.75;;;0.90;;
24631;SDS011;59977;48.782;9.190;2024-02-23T05:04:59;3.05;;;0.73;;
24631;SDS011;59977;48.782;9.190;2024-02-23T05:07:33;5.80;;;1.02;;
24631;SDS011;59977;48.782;9.190;2024-02-23T05:09:59;3.35;;;0.90;;
24631;SDS011;59977;48.782;9.190;2024-02-23T05:12:25;10.70;;;0.90;;
24631;SDS011;59977;48.782;9.190;2024-02-23T05:14:51;4.60;;;0.80;;
24631;SDS011;59977;48.782;9.190;2024-02-23T05:17:16;3.92;;;0.80;;
24631;SDS011;59977;48.782;9.190;2024-02-23T05:19:42;8.07;;;1.20;;
24631;SDS011;59977;48.782;9.190;2024-02-23T05:22:08;4.22;;;0.80;;
24631;SDS011;59977;48.782;9.190;2024-02-23T05:24:33;2.42;;;0.85;;
24631;SDS011;59977;48.782;9.190;2024-02-23T05:26:59;3.40;;;0.80;;
24631;SDS011;59977;48.782;9.190;2024-02-23T05:29:27;5.43;;;0.93;;
24631;SDS011;59977;48.782;9.190;2024-02-23T05:31:53;6.65;;;0.88;;
24631;SDS011;59977;48.782;9.190;2024-02-23T05:34:18;9.13;;;0.80;;
24631;SDS011;59977;48.782;9.190;2024-02-23T05:36:44;3.60;;;0.90;;
24631;SDS011;59977;48.782;9.190;2024-02-23T05:39:11;2.10;;;0.68;;
24631;SDS011;59977;48.782;9.190;2024-02-23T05:41:38;4.10;;;0.88;;
24631;SDS011;59977;48.782;9.190;2024-02-23T05:44:04;3.38;;;0.90;;
24631;SDS011;59977;48.782;9.190;2024-02-23T05:46:30;4.60;;;0.90;;
24631;SDS011;59977;48.782;9.190;2024-02-23T05:48:59;6.47;;;0.90;;
24631;SDS011;59977;48.782;9.190;2024-02-23T05:51:25;4.30;;;1.05;;
24631;SDS011;59977;48.782;9.190;2024-02-23T05:53:54;3.95;;;0.85;;
24631;SDS011;59977;48.782;9.190;2024-02-23T05:56:20;3.22;;;0.80;;
24631;SDS011;59977;48.782;9.190;2024-02-23T05:58:45;5.28;;;0.85;;
24631;SDS011;59977;48.782;9.190;2024-02-23T06:01:11;8.23;;;0.80;;
24631;SDS011;59977;48.782;9.190;2024-02-23T06:03:36;4.80;;;0.90;;
24631;SDS011;59977;48.782;9.190;2024-02-23T06:06:06;6.63;;;1.00;;
24631;SDS011;59977;48.782;9.190;2024-02-23T06:08:33;4.50;;;1.05;;
24631;SDS011;59977;48.782;9.190;2024-02-23T06:10:58;8.85;;;1.38;;
24631;SDS011;59977;48.782;9.190;2024-02-23T06:13:24;5.85;;;0.80;;
24631;SDS011;59977;48.782;9.190;2024-02-23T06:15:50;3.90;;;0.80;;
24631;SDS011;59977;48.782;9.190;2024-02-23T06:18:16;3.20;;;0.60;;
24631;SDS011;59977;48.782;9.190;2024-02-23T06:20:41;4.82;;;0.80;;
24631;SDS011;59977;48.782;9.190;2024-02-23T06:23:07;3.70;;;0.77;;
24631;SDS011;59977;48.782;9.190;2024-02-23T06:25:33;4.88;;;0.90;;
24631;SDS011;59977;48.782;9.190;2024-02-23T06:27:58;3.58;;;0.82;;
24631;SDS011;59977;48.782;9.190;2024-02-23T06:30:24;3.75;;;1.02;;
24631;SDS011;59977;48.782;9.190;2024-02-23T06:32:49;2.75;;;0.90;;
24631;SDS011;59977;48.782;9.190;2024-02-23T06:35:15;4.82;;;1.00;;
24631;SDS011;59977;48.782;9.190;2024-02-23T06:37:40;4.90;;;0.80;;
24631;SDS011;59977;48.782;9.190;2024-02-23T06:40:06;4.57;;;0.98;;
24631;SDS011;59977;48.782;9.190;2024-02-23T06:42:33;4.47;;;0.80;;
24631;SDS011;59977;48.782;9.190;2024-02-23T06:44:58;4.68;;;0.82;;
24631;SDS011;59977;48.782;9.190;2024-02-23T06:47:24;4.18;;;0.90;;
24631;SDS011;59977;48.782;9.190;2024-02-23T06:49:50;8.52;;;1.13;;
24631;SDS011;59977;48.782;9.190;2024-02-23T06:52:16;3.88;;;0.85;;
24631;SDS011;59977;48.782;9.190;2024-02-23T06:54:43;5.15;;;1.00;;
24631;SDS011;59977;48.782;9.190;2024-02-23T06:57:08;2.20;;;0.95;;
24631;SDS011;59977;48.782;9.190;2024-02-23T06:59:34;3.20;;;0.95;;
24631;SDS011;59977;48.782;9.190;2024-02-23T07:02:00;4.25;;;1.00;;
24631;SDS011;59977;48.782;9.190;2024-02-23T07:04:26;4.20;;;0.85;;
24631;SDS011;59977;48.782;9.190;2024-02-23T07:06:54;5.75;;;0.93;;
24631;SDS011;59977;48.782;9.190;2024-02-23T07:09:20;3.45;;;1.00;;
24631;SDS011;59977;48.782;9.190;2024-02-23T07:11:46;5.38;;;1.17;;
24631;SDS011;59977;48.782;9.190;2024-02-23T07:14:11;5.10;;;1.38;;
24631;SDS011;59977;48.782;9.190;2024-02-23T07:16:39;6.03;;;1.00;;
24631;SDS011;59977;48.782;9.190;2024-02-23T07:19:06;2.50;;;0.88;;
24631;SDS011;59977;48.782;9.190;2024-02-23T07:21:32;4.32;;;1.35;;
24631;SDS011;59977;48.782;9.190;2024-02-23T07:23:59;6.82;;;1.02;;
24631;SDS011;59977;48.782;9.190;2024-02-23T07:26:25;13.90;;;1.08;;
24631;SDS011;59977;48.782;9.190;2024-02-23T07:28:53;3.05;;;1.00;;
24631;SDS011;59977;48.782;9.190;2024-02-23T07:31:19;3.10;;;1.10;;
24631;SDS011;59977;48.782;9.190;2024-02-23T07:33:44;5.75;;;1.08;;
24631;SDS011;59977;48.782;9.190;2024-02-23T07:36:16;5.03;;;1.20;;
24631;SDS011;59977;48.782;9.190;2024-02-23T07:38:42;3.20;;;1.00;;
24631;SDS011;59977;48.782;9.190;2024-02-23T07:41:09;2.67;;;1.00;;
24631;SDS011;59977;48.782;9.190;2024-02-23T07:43:35;4.50;;;1.10;;
24631;SDS011;59977;48.782;9.190;2024-02-23T07:46:01;7.10;;;1.00;;
24631;SDS011;59977;48.782;9.190;2024-02-23T07:48:27;2.00;;;0.90;;
24631;SDS011;59977;48.782;9.190;2024-02-23T07:50:53;9.70;;;1.38;;
24631;SDS011;59977;48.782;9.190;2024-02-23T07:53:19;3.05;;;1.13;;
24631;SDS011;59977;48.782;9.190;2024-02-23T07:55:44;6.43;;;1.23;;
24631;SDS011;59977;48.782;9.190;2024-02-23T07:58:10;6.07;;;1.38;;
24631;SDS011;59977;48.782;9.190;2024-02-23T08:00:35;4.07;;;1.20;;
24631;SDS011;59977;48.782;9.190;2024-02-23T08:03:03;4.80;;;1.20;;
24631;SDS011;59977;48.782;9.190;2024-02-23T08:05:29;4.00;;;1.10;;
24631;SDS011;59977;48.782;9.190;2024-02-23T08:07:54;7.43;;;1.10;;
24631;SDS011;59977;48.782;9.190;2024-02-23T08:10:20;3.67;;;0.90;;
24631;SDS011;59977;48.782;9.190;2024-02-23T08:12:46;7.43;;;1.50;;
24631;SDS011;59977;48.782;9.190;2024-02-23T08:15:12;6.65;;;1.30;;
24631;SDS011;59977;48.782;9.190;2024-02-23T08:17:38;6.10;;;1.30;;
24631;SDS011;59977;48.782;9.190;2024-02-23T08:20:04;3.65;;;1.23;;
24631;SDS011;59977;48.782;9.190;2024-02-23T08:22:30;8.98;;;1.40;;
24631;SDS011;59977;48.782;9.190;2024-02-23T08:24:56;7.20;;;1.10;;
24631;SDS011;59977;48.782;9.190;2024-02-23T08:27:21;5.88;;;1.10;;
24631;SDS011;59977;48.782;9.190;2024-02-23T08:29:47;2.55;;;1.00;;
24631;SDS011;59977;48.782;9.190;2024-02-23T08:32:13;3.15;;;0.93;;
24631;SDS011;59977;48.782;9.190;2024-02-23T08:34:39;3.05;;;1.05;;
24631;SDS011;59977;48.782;9.190;2024-02-23T08:37:04;6.53;;;1.10;;
24631;SDS011;59977;48.782;9.190;2024-02-23T08:39:30;5.88;;;1.33;;
24631;SDS011;59977;48.782;9.190;2024-02-23T08:41:56;9.07;;;1.27;;
24631;SDS011;59977;48.782;9.190;2024-02-23T08:44:21;10.32;;;1.10;;
24631;SDS011;59977;48.782;9.190;2024-02-23T08:46:47;4.72;;;1.58;;
24631;SDS011;59977;48.782;9.190;2024-02-23T08:49:13;12.75;;;1.58;;
24631;SDS011;59977;48.782;9.190;2024-02-23T08:51:39;6.13;;;1.17;;
24631;SDS011;59977;48.782;9.190;2024-02-23T08:54:05;7.13;;;1.20;;
24631;SDS011;59977;48.782;9.190;2024-02-23T08:56:41;6.13;;;1.23;;
24631;SDS011;59977;48.782;9.190;2024-02-23T08:59:08;8.65;;;1.27;;
24631;SDS011;59977;48.782;9.190;2024-02-23T09:01:38;5.32;;;1.13;;
24631;SDS011;59977;48.782;9.190;2024-02-23T09:04:04;3.13;;;0.80;;
24631;SDS011;59977;48.782;9.190;2024-02-23T09:06:29;9.88;;;1.52;;
24631;SDS011;59977;48.782;9.190;2024-02-23T09:08:56;6.65;;;1.55;;
24631;SDS011;59977;48.782;9.190;2024-02-23T09:11:22;7.55;;;1.30;;
24631;SDS011;59977;48.782;9.190;2024-02-23T09:13:48;8.13;;;1.60;;
24631;SDS011;59977;48.782;9.190;2024-02-23T09:16:13;4.53;;;1.20;;
24631;SDS011;59977;48.782;9.190;2024-02-23T09:18:39;7.22;;;1.65;;
24631;SDS011;59977;48.782;9.190;2024-02-23T09:21:05;5.75;;;1.05;;
24631;SDS011;59977;48.782;9.190;2024-02-23T09:23:31;4.65;;;1.08;;
24631;SDS011;59977;48.782;9.190;2024-02-23T09:25:58;3.15;;;1.00;;
24631;SDS011;59977;48.782;9.190;2024-02-23T09:28:27;5.78;;;1.33;;
24631;SDS011;59977;48.782;9.190;2024-02-23T09:30:55;5.68;;;1.33;;
24631;SDS011;59977;48.782;9.190;2024-02-23T09:33:20;7.38;;;1.45;;
24631;SDS011;59977;48.782;9.190;2024-02-23T09:35:46;8.32;;;1.58;;
24631;SDS011;59977;48.782;9.190;2024-02-23T09:38:12;6.28;;;1.85;;
24631;SDS011;59977;48.782;9.190;2024-02-23T09:40:38;8.75;;;1.02;;
24631;SDS011;59977;48.782;9.190;2024-02-23T09:43:04;7.88;;;1.27;;
24631;SDS011;59977;48.782;9.190;2024-02-23T09:45:33;5.45;;;1.27;;
24631;SDS011;59977;48.782;9.190;2024-02-23T09:47:59;7.65;;;1.45;;
24631;SDS011;59977;48.782;9.190;2024-02-23T09:50:28;3.38;;;1.00;;
24631;SDS011;59977;48.782;9.190;2024-02-23T09:52:55;4.90;;;1.27;;
24631;SDS011;59977;48.782;9.190;2024-02-23T09:55:23;6.40;;;1.10;;
24631;SDS011;59977;48.782;9.190;2024-02-23T09:57:50;7.30;;;1.13;;
24631;SDS011;59977;48.782;9.190;2024-02-23T10:00:21;6.28;;;1.40;;
24631;SDS011;59977;48.782;9.190;2024-02-23T10:02:48;4.63;;;1.02;;
24631;SDS011;59977;48.782;9.190;2024-02-23T10:05:15;6.20;;;1.08;;
24631;SDS011;59977;48.782;9.190;2024-02-23T10:07:42;6.05;;;1.10;;
24631;SDS011;59977;48.782;9.190;2024-02-23T10:10:09;5.53;;;0.90;;
24631;SDS011;59977;48.782;9.190;2024-02-23T10:12:36;5.00;;;1.40;;
24631;SDS011;59977;48.782;9.190;2024-02-23T10:15:03;6.97;;;1.25;;
24631;SDS011;59977;48.782;9.190;2024-02-23T10:17:32;4.55;;;1.15;;
24631;SDS011;59977;48.782;9.190;2024-02-23T10:19:58;4.97;;;1.00;;
24631;SDS011;59977;48.782;9.190;2024-02-23T10:22:24;7.20;;;1.33;;
24631;SDS011;59977;48.782;9.190;2024-02-23T10:24:51;5.32;;;1.30;;
24631;SDS011;59977;48.782;9.190;2024-02-23T10:27:17;9.70;;;1.80;;
24631;SDS011;59977;48.782;9.190;2024-02-23T10:29:43;8.50;;;1.40;;
24631;SDS011;59977;48.782;9.190;2024-02-23T10:32:13;4.45;;;1.38;;
24631;SDS011;59977;48.782;9.190;2024-02-23T10:34:41;4.28;;;1.33;;
24631;SDS011;59977;48.782;9.190;2024-02-23T10:37:07;10.82;;;1.98;;
24631;SDS011;59977;48.782;9.190;2024-02-23T10:39:36;6.18;;;1.55;;
24631;SDS011;59977;48.782;9.190;2024-02-23T10:42:05;7.68;;;1.40;;
24631;SDS011;59977;48.782;9.190;2024-02-23T10:44:40;4.35;;;1.20;;
24631;SDS011;59977;48.782;9.190;2024-02-23T10:47:06;6.75;;;1.60;;
24631;SDS011;59977;48.782;9.190;2024-02-23T10:49:33;9.80;;;1.40;;
24631;SDS011;59977;48.782;9.190;2024-02-23T10:52:01;5.63;;;1.20;;
24631;SDS011;59977;48.782;9.190;2024-02-23T10:54:27;5.38;;;1.00;;
24631;SDS011;59977;48.782;9.190;2024-02-23T10:56:54;6.68;;;1.63;;
24631;SDS011;59977;48.782;9.190;2024-02-23T10:59:20;5.43;;;1.10;;
24631;SDS011;59977;48.782;9.190;2024-02-23T11:01:53;6.10;;;1.30;;
24631;SDS011;59977;48.782;9.190;2024-02-23T11:04:22;8.63;;;1.30;;
24631;SDS011;59977;48.782;9.190;2024-02-23T11:06:50;6.18;;;1.60;;
24631;SDS011;59977;48.782;9.190;2024-02-23T11:09:20;6.05;;;1.33;;
24631;SDS011;59977;48.782;9.190;2024-02-23T11:11:53;7.68;;;1.63;;
24631;SDS011;59977;48.782;9.190;2024-02-23T11:14:29;7.72;;;1.20;;
24631;SDS011;59977;48.782;9.190;2024-02-23T11:17:00;7.65;;;1.17;;
24631;SDS011;59977;48.782;9.190;2024-02-23T11:19:38;8.07;;;1.45;;
24631;SDS011;59977;48.782;9.190;2024-02-23T11:22:04;7.70;;;1.50;;
24631;SDS011;59977;48.782;9.190;2024-02-23T11:24:35;5.95;;;1.42;;
24631;SDS011;59977;48.782;9.190;2024-02-23T11:27:12;7.03;;;1.40;;
24631;SDS011;59977;48.782;9.190;2024-02-23T11:29:45;6.90;;;1.40;;
24631;SDS011;59977;48.782;9.190;2024-02-23T11:32:18;5.28;;;1.38;;
24631;SDS011;59977;48.782;9.190;2024-02-23T11:34:56;7.55;;;1.67;;
24631;SDS011;59977;48.782;9.190;2024-02-23T11:37:22;7.45;;;1.58;;
24631;SDS011;59977;48.782;9.190;2024-02-23T11:39:48;9.60;;;1.80;;
24631;SDS011;59977;48.782;9.190;2024-02-23T11:42:15;5.35;;;1.10;;
24631;SDS011;59977;48.782;9.190;2024-02-23T11:44:41;4.30;;;1.45;;
24631;SDS011;59977;48.782;9.190;2024-02-23T11:47:09;8.02;;;1.50;;
24631;SDS011;59977;48.782;9.190;2024-02-23T11:49:35;5.57;;;1.48;;
24631;SDS011;59977;48.782;9.190;2024-02-23T11:52:00;6.82;;;1.70;;
24631;SDS011;59977;48.782;9.190;2024-02-23T11:54:26;8.43;;;1.80;;
24631;SDS011;59977;48.782;9.190;2024-02-23T11:56:52;8.27;;;1.90;;
24631;SDS011;59977;48.782;9.190;2024-02-23T11:59:20;6.63;;;1.50;;
24631;SDS011;59977;48.782;9.190;2024-02-23T12:01:46;6.28;;;1.40;;
24631;SDS011;59977;48.782;9.190;2024-02-23T12:04:13;4.65;;;1.45;;
24631;SDS011;59977;48.782;9.190;2024-02-23T12:06:39;10.45;;;1.42;;
24631;SDS011;59977;48.782;9.190;2024-02-23T12:09:05;6.85;;;1.40;;
24631;SDS011;59977;48.782;9.190;2024-02-23T12:11:31;9.50;;;1.58;;
24631;SDS011;59977;48.782;9.190;2024-02-23T12:14:00;9.60;;;1.80;;
24631;SDS011;59977;48.782;9.190;2024-02-23T12:16:33;6.22;;;1.45;;
24631;SDS011;59977;48.782;9.190;2024-02-23T12:19:00;8.23;;;1.52;;
24631;SDS011;59977;48.782;9.190;2024-02-23T12:21:27;11.90;;;1.48;;
24631;SDS011;59977;48.782;9.190;2024-02-23T12:23:53;9.25;;;1.42;;
24631;SDS011;59977;48.782;9.190;2024-02-23T12:26:19;9.32;;;1.40;;
24631;SDS011;59977;48.782;9.190;2024-02-23T12:28:45;12.32;;;1.65;;
24631;SDS011;59977;48.782;9.190;2024-02-23T12:31:11;8.85;;;1.52;;
24631;SDS011;59977;48.782;9.190;2024-02-23T12:33:38;5.25;;;1.27;;
24631;SDS011;59977;48.782;9.190;2024-02-23T12:36:06;5.95;;;1.10;;
24631;SDS011;59977;48.782;9.190;2024-02-23T12:38:33;7.75;;;1.52;;
24631;SDS011;59977;48.782;9.190;2024-02-23T12:41:00;5.78;;;1.45;;
24631;SDS011;59977;48.782;9.190;2024-02-23T12:43:27;9.32;;;1.65;;
24631;SDS011;59977;48.782;9.190;2024-02-23T12:45:55;8.13;;;1.38;;
24631;SDS011;59977;48.782;9.190;2024-02-23T12:48:24;6.00;;;1.52;;
24631;SDS011;59977;48.782;9.190;2024-02-23T12:50:56;8.23;;;1.63;;
24631;SDS011;59977;48.782;9.190;2024-02-23T12:53:34;4.78;;;1.33;;
24631;SDS011;59977;48.782;9.190;2024-02-23T12:56:07;5.68;;;1.20;;
24631;SDS011;59977;48.782;9.190;2024-02-23T12:58:35;10.65;;;2.03;;
24631;SDS011;59977;48.782;9.190;2024-02-23T13:01:01;7.72;;;1.40;;
24631;SDS011;59977;48.782;9.190;2024-02-23T13:03:27;8.52;;;1.50;;
24631;SDS011;59977;48.782;9.190;2024-02-23T13:05:57;6.18;;;1.55;;
24631;SDS011;59977;48.782;9.190;2024-02-23T13:08:22;10.98;;;1.40;;
24631;SDS011;59977;48.782;9.190;2024-02-23T13:10:49;8.63;;;1.98;;
24631;SDS011;59977;48.782;9.190;2024-02-23T13:13:15;5.00;;;1.23;;
24631;SDS011;59977;48.782;9.190;2024-02-23T13:15:42;4.25;;;1.20;;
24631;SDS011;59977;48.782;9.190;2024-02-23T13:18:08;11.32;;;1.73;;
24631;SDS011;59977;48.782;9.190;2024-02-23T13:20:43;5.13;;;1.52;;
24631;SDS011;59977;48.782;9.190;2024-02-23T13:23:28;6.55;;;1.58;;
24631;SDS011;59977;48.782;9.190;2024-02-23T13:26:06;5.28;;;1.42;;
24631;SDS011;59977;48.782;9.190;2024-02-23T13:34:24;9.57;;;1.70;;
24631;SDS011;59977;48.782;9.190;2024-02-23T13:36:49;5.45;;;1.30;;
24631;SDS011;59977;48.782;9.190;2024-02-23T13:39:17;6.78;;;1.63;;
24631;SDS011;59977;48.782;9.190;2024-02-23T13:41:45;10.20;;;1.60;;
24631;SDS011;59977;48.782;9.190;2024-02-23T13:44:14;7.38;;;1.60;;
24631;SDS011;59977;48.782;9.190;2024-02-23T13:46:40;10.35;;;1.63;;
24631;SDS011;59977;48.782;9.190;2024-02-23T13:49:09;7.57;;;1.42;;
24631;SDS011;59977;48.782;9.190;2024-02-23T13:51:41;6.53;;;1.45;;
24631;SDS011;59977;48.782;9.190;2024-02-23T13:54:06;7.80;;;1.40;;
24631;SDS011;59977;48.782;9.190;2024-02-23T13:56:33;6.82;;;1.30;;
24631;SDS011;59977;48.782;9.190;2024-02-23T13:59:00;18.63;;;1.90;;
24631;SDS011;59977;48.782;9.190;2024-02-23T14:01:26;6.53;;;1.48;;
24631;SDS011;59977;48.782;9.190;2024-02-23T14:03:52;13.90;;;2.03;;
24631;SDS011;59977;48.782;9.190;2024-02-23T14:06:17;7.60;;;1.33;;
24631;SDS011;59977;48.782;9.190;2024-02-23T14:08:43;14.43;;;2.03;;
24631;SDS011;59977;48.782;9.190;2024-02-23T14:11:09;8.10;;;1.77;;
24631;SDS011;59977;48.782;9.190;2024-02-23T14:13:35;5.85;;;1.45;;
24631;SDS011;59977;48.782;9.190;2024-02-23T14:16:04;9.32;;;1.45;;
24631;SDS011;59977;48.782;9.190;2024-02-23T14:18:33;8.25;;;1.58;;
24631;SDS011;59977;48.782;9.190;2024-02-23T14:21:03;9.60;;;1.80;;
24631;SDS011;59977;48.782;9.190;2024-02-23T14:23:29;15.52;;;2.92;;
24631;SDS011;59977;48.782;9.190;2024-02-23T14:25:55;8.60;;;1.80;;
24631;SDS011;59977;48.782;9.190;2024-02-23T14:28:20;7.63;;;1.67;;
24631;SDS011;59977;48.782;9.190;2024-02-23T14:30:46;6.35;;;1.55;;
24631;SDS011;59977;48.782;9.190;2024-02-23T14:33:12;11.00;;;1.73;;
24631;SDS011;59977;48.782;9.190;2024-02-23T14:38:16;7.65;;;1.65;;
24631;SDS011;59977;48.782;9.190;2024-02-23T14:41:02;8.85;;;3.05;;
24631;SDS011;59977;48.782;9.190;2024-02-23T14:43:28;12.43;;;1.92;;
24631;SDS011;59977;48.782;9.190;2024-02-23T14:45:56;8.95;;;1.63;;
24631;SDS011;59977;48.782;9.190;2024-02-23T14:48:22;5.40;;;1.40;;
24631;SDS011;59977;48.782;9.190;2024-02-23T14:50:48;7.68;;;1.73;;
24631;SDS011;59977;48.782;9.190;2024-02-23T14:53:14;8.02;;;1.83;;